logo dgac
Miércoles 17 de Enero del 2018
Buscar por aerodromo o helipuerto
Ingrese nombre de aeródromo, localidad o designador OACI:
METAR del 17-01-2018 a las 18:00 UTC
METAR SCRD 171800Z 18013KT CAVOK 28/08 Q1015
Viento: dirección 180 grados, velocidad 13 nudos
Visibilidad: 10 km o más,
    sin nubes bajo los 5.000 pies o bajo del MSA (Mínimo de Seguridad del Aeródromo),
    sin cumulonimbus, y sin fenómenos de tiempo significativo en el aeródromo o alrededores
Temperatura: 28 °C
Rocío: 8 °C
Humedad_relativa: 28%
Presión: 1015 hPa
METAR del 17-01-2018 a las 18:00 UTC
METAR SCRD 171800Z 18013KT CAVOK 28/08 Q1015
Viento: dirección 180 grados, velocidad 13 nudos
Visibilidad: 10 km o más,
    sin nubes bajo los 5.000 pies o bajo del MSA (Mínimo de Seguridad del Aeródromo),
    sin cumulonimbus, y sin fenómenos de tiempo significativo en el aeródromo o alrededores
Temperatura: 28 °C
Rocío: 8 °C
Humedad_relativa: 28%
Presión: 1015 hPa
METAR del 17-01-2018 a las 17:00 UTC
METAR SCRD 171700Z 18013KT CAVOK 26/10 Q1015
Viento: dirección 180 grados, velocidad 13 nudos
Visibilidad: 10 km o más,
    sin nubes bajo los 5.000 pies o bajo del MSA (Mínimo de Seguridad del Aeródromo),
    sin cumulonimbus, y sin fenómenos de tiempo significativo en el aeródromo o alrededores
Temperatura: 26 °C
Rocío: 10 °C
Humedad_relativa: 37%
Presión: 1015 hPa
METAR del 17-01-2018 a las 16:00 UTC
METAR SCRD 171600Z 34007KT CAVOK 23/11 Q1015
Viento: dirección 340 grados, velocidad 7 nudos
Visibilidad: 10 km o más,
    sin nubes bajo los 5.000 pies o bajo del MSA (Mínimo de Seguridad del Aeródromo),
    sin cumulonimbus, y sin fenómenos de tiempo significativo en el aeródromo o alrededores
Temperatura: 23 °C
Rocío: 11 °C
Humedad_relativa: 47%
Presión: 1015 hPa
METAR del 17-01-2018 a las 15:00 UTC
METAR SCRD 171500Z 33006KT CAVOK 21/11 Q1016
Viento: dirección 330 grados, velocidad 6 nudos
Visibilidad: 10 km o más,
    sin nubes bajo los 5.000 pies o bajo del MSA (Mínimo de Seguridad del Aeródromo),
    sin cumulonimbus, y sin fenómenos de tiempo significativo en el aeródromo o alrededores
Temperatura: 21 °C
Rocío: 11 °C
Humedad_relativa: 53%
Presión: 1016 hPa
METAR del 17-01-2018 a las 14:00 UTC
METAR SCRD 171400Z 30007KT CAVOK 19/11 Q1016
Viento: dirección 300 grados, velocidad 7 nudos
Visibilidad: 10 km o más,
    sin nubes bajo los 5.000 pies o bajo del MSA (Mínimo de Seguridad del Aeródromo),
    sin cumulonimbus, y sin fenómenos de tiempo significativo en el aeródromo o alrededores
Temperatura: 19 °C
Rocío: 11 °C
Humedad_relativa: 60%
Presión: 1016 hPa
METAR del 17-01-2018 a las 13:00 UTC
METAR SCRD 171300Z 21003KT CAVOK 18/12 Q1016
Viento: dirección 210 grados, velocidad 3 nudos
Visibilidad: 10 km o más,
    sin nubes bajo los 5.000 pies o bajo del MSA (Mínimo de Seguridad del Aeródromo),
    sin cumulonimbus, y sin fenómenos de tiempo significativo en el aeródromo o alrededores
Temperatura: 18 °C
Rocío: 12 °C
Humedad_relativa: 68%
Presión: 1016 hPa
METAR del 17-01-2018 a las 12:00 UTC
METAR SCRD 171200Z 36003KT CAVOK 13/12 Q1016
Viento: dirección 360 grados, velocidad 3 nudos
Visibilidad: 10 km o más,
    sin nubes bajo los 5.000 pies o bajo del MSA (Mínimo de Seguridad del Aeródromo),
    sin cumulonimbus, y sin fenómenos de tiempo significativo en el aeródromo o alrededores
Temperatura: 13 °C
Rocío: 12 °C
Humedad_relativa: 94%
Presión: 1016 hPa
METAR del 17-01-2018 a las 00:00 UTC
METAR SCRD 170000Z 18010KT CAVOK 16/12 Q1018
Viento: dirección 180 grados, velocidad 10 nudos
Visibilidad: 10 km o más,
    sin nubes bajo los 5.000 pies o bajo del MSA (Mínimo de Seguridad del Aeródromo),
    sin cumulonimbus, y sin fenómenos de tiempo significativo en el aeródromo o alrededores
Temperatura: 16 °C
Rocío: 12 °C
Humedad_relativa: 77%
Presión: 1018 hPa
METAR del 16-01-2018 a las 23:00 UTC
METAR SCRD 162300Z 18016KT CAVOK 18/12 Q1017
Viento: dirección 180 grados, velocidad 16 nudos
Visibilidad: 10 km o más,
    sin nubes bajo los 5.000 pies o bajo del MSA (Mínimo de Seguridad del Aeródromo),
    sin cumulonimbus, y sin fenómenos de tiempo significativo en el aeródromo o alrededores
Temperatura: 18 °C
Rocío: 12 °C
Humedad_relativa: 68%
Presión: 1017 hPa